sensor_id;sensor_type;location;lat;lon;timestamp;pressure;altitude;pressure_sealevel;temperature;humidity
43683;BME280;29285;52.128;21.060;2023-04-04T00:02:14;101193.43;;;2.63;67.55
43683;BME280;29285;52.128;21.060;2023-04-04T00:07:15;101190.58;;;2.54;67.87
43683;BME280;29285;52.128;21.060;2023-04-04T00:12:17;101191.23;;;2.52;67.97
43683;BME280;29285;52.128;21.060;2023-04-04T00:17:19;101186.60;;;2.46;68.13
43683;BME280;29285;52.128;21.060;2023-04-04T00:22:21;101184.51;;;2.51;68.60
43683;BME280;29285;52.128;21.060;2023-04-04T00:27:23;101187.08;;;2.50;68.49
43683;BME280;29285;52.128;21.060;2023-04-04T00:32:24;101182.69;;;2.47;68.77
43683;BME280;29285;52.128;21.060;2023-04-04T00:37:29;101181.02;;;2.43;68.72
43683;BME280;29285;52.128;21.060;2023-04-04T00:42:32;101172.54;;;2.45;69.13
43683;BME280;29285;52.128;21.060;2023-04-04T00:47:37;101168.95;;;2.40;69.39
43683;BME280;29285;52.128;21.060;2023-04-04T00:52:40;101165.27;;;2.32;69.22
43683;BME280;29285;52.128;21.060;2023-04-04T00:57:42;101160.75;;;2.19;69.31
43683;BME280;29285;52.128;21.060;2023-04-04T01:02:43;101151.33;;;2.14;69.56
43683;BME280;29285;52.128;21.060;2023-04-04T01:07:45;101147.82;;;2.00;69.48
43683;BME280;29285;52.128;21.060;2023-04-04T01:12:47;101136.02;;;1.89;69.38
43683;BME280;29285;52.128;21.060;2023-04-04T01:17:50;101129.14;;;1.77;69.32
43683;BME280;29285;52.128;21.060;2023-04-04T01:22:56;101135.27;;;1.77;69.91
43683;BME280;29285;52.128;21.060;2023-04-04T01:27:58;101130.91;;;1.69;70.08
43683;BME280;29285;52.128;21.060;2023-04-04T01:33:03;101125.19;;;1.61;70.50
43683;BME280;29285;52.128;21.060;2023-04-04T01:43:43;101128.92;;;1.45;70.66
43683;BME280;29285;52.128;21.060;2023-04-04T01:48:47;101131.11;;;1.49;70.93
43683;BME280;29285;52.128;21.060;2023-04-04T01:53:49;101128.93;;;1.50;71.47
43683;BME280;29285;52.128;21.060;2023-04-04T01:58:50;101130.29;;;1.45;71.66
43683;BME280;29285;52.128;21.060;2023-04-04T02:03:53;101132.38;;;1.41;71.72
43683;BME280;29285;52.128;21.060;2023-04-04T02:08:55;101129.38;;;1.38;72.18
43683;BME280;29285;52.128;21.060;2023-04-04T02:13:57;101128.14;;;1.37;72.38
43683;BME280;29285;52.128;21.060;2023-04-04T02:18:58;101131.71;;;1.37;72.62
43683;BME280;29285;52.128;21.060;2023-04-04T02:24:01;101135.39;;;1.39;72.88
43683;BME280;29285;52.128;21.060;2023-04-04T02:29:02;101134.76;;;1.46;73.27
43683;BME280;29285;52.128;21.060;2023-04-04T02:34:04;101134.45;;;1.46;73.63
43683;BME280;29285;52.128;21.060;2023-04-04T02:39:06;101136.16;;;1.46;73.76
43683;BME280;29285;52.128;21.060;2023-04-04T02:44:07;101137.91;;;1.48;74.33
43683;BME280;29285;52.128;21.060;2023-04-04T02:49:10;101139.98;;;1.43;74.18
43683;BME280;29285;52.128;21.060;2023-04-04T02:54:13;101145.79;;;1.43;74.58
43683;BME280;29285;52.128;21.060;2023-04-04T02:59:14;101145.44;;;1.43;74.75
43683;BME280;29285;52.128;21.060;2023-04-04T03:04:17;101145.36;;;1.36;74.67
43683;BME280;29285;52.128;21.060;2023-04-04T03:09:20;101148.09;;;1.36;75.05
43683;BME280;29285;52.128;21.060;2023-04-04T03:14:22;101149.75;;;1.29;75.26
43683;BME280;29285;52.128;21.060;2023-04-04T03:19:24;101148.73;;;1.19;75.11
43683;BME280;29285;52.128;21.060;2023-04-04T03:24:25;101148.94;;;1.20;75.41
43683;BME280;29285;52.128;21.060;2023-04-04T03:29:47;101145.95;;;1.18;75.64
43683;BME280;29285;52.128;21.060;2023-04-04T03:34:49;101143.09;;;1.09;75.95
43683;BME280;29285;52.128;21.060;2023-04-04T03:39:52;101138.53;;;1.02;75.95
43683;BME280;29285;52.128;21.060;2023-04-04T03:44:54;101138.71;;;0.97;76.16
43683;BME280;29285;52.128;21.060;2023-04-04T03:49:58;101144.82;;;1.00;76.29
43683;BME280;29285;52.128;21.060;2023-04-04T03:55:00;101145.67;;;1.06;76.81
43683;BME280;29285;52.128;21.060;2023-04-04T04:00:02;101143.96;;;1.01;77.03
43683;BME280;29285;52.128;21.060;2023-04-04T04:05:08;101142.24;;;1.00;77.24
43683;BME280;29285;52.128;21.060;2023-04-04T04:10:10;101145.25;;;0.98;77.32
43683;BME280;29285;52.128;21.060;2023-04-04T04:15:12;101138.30;;;1.00;77.68
43683;BME280;29285;52.128;21.060;2023-04-04T04:20:14;101136.30;;;0.97;77.79
43683;BME280;29285;52.128;21.060;2023-04-04T04:25:16;101136.10;;;1.01;78.09
43683;BME280;29285;52.128;21.060;2023-04-04T04:30:21;101140.35;;;1.04;78.28
43683;BME280;29285;52.128;21.060;2023-04-04T04:35:23;101135.94;;;1.06;78.63
43683;BME280;29285;52.128;21.060;2023-04-04T04:40:29;101139.20;;;1.15;79.00
43683;BME280;29285;52.128;21.060;2023-04-04T04:45:40;101136.13;;;1.21;79.28
43683;BME280;29285;52.128;21.060;2023-04-04T04:50:45;101132.58;;;1.22;79.37
43683;BME280;29285;52.128;21.060;2023-04-04T04:55:47;101128.34;;;1.18;79.32
43683;BME280;29285;52.128;21.060;2023-04-04T05:00:54;101129.20;;;1.13;79.33
43683;BME280;29285;52.128;21.060;2023-04-04T05:05:59;101129.83;;;1.12;79.34
43683;BME280;29285;52.128;21.060;2023-04-04T05:11:01;101128.44;;;1.16;79.43
43683;BME280;29285;52.128;21.060;2023-04-04T05:16:03;101127.70;;;1.39;80.19
43683;BME280;29285;52.128;21.060;2023-04-04T05:21:05;101122.50;;;1.58;80.58
43683;BME280;29285;52.128;21.060;2023-04-04T05:26:06;101122.19;;;1.64;80.80
43683;BME280;29285;52.128;21.060;2023-04-04T05:31:08;101122.45;;;1.77;80.87
43683;BME280;29285;52.128;21.060;2023-04-04T05:36:10;101128.30;;;1.83;81.35
43683;BME280;29285;52.128;21.060;2023-04-04T05:41:13;101126.77;;;1.89;81.28
43683;BME280;29285;52.128;21.060;2023-04-04T05:46:15;101127.64;;;2.00;81.75
43683;BME280;29285;52.128;21.060;2023-04-04T05:51:17;101129.21;;;2.24;82.00
43683;BME280;29285;52.128;21.060;2023-04-04T05:56:19;101128.29;;;2.38;82.36
43683;BME280;29285;52.128;21.060;2023-04-04T06:01:27;101129.27;;;2.37;82.38
43683;BME280;29285;52.128;21.060;2023-04-04T06:06:29;101128.95;;;2.32;82.18
43683;BME280;29285;52.128;21.060;2023-04-04T06:11:31;101126.81;;;2.35;81.98
43683;BME280;29285;52.128;21.060;2023-04-04T06:16:33;101121.74;;;2.43;82.14
43683;BME280;29285;52.128;21.060;2023-04-04T06:21:35;101116.92;;;2.48;82.07
43683;BME280;29285;52.128;21.060;2023-04-04T06:26:37;101117.44;;;2.59;82.48
43683;BME280;29285;52.128;21.060;2023-04-04T06:31:39;101114.58;;;2.74;82.58
43683;BME280;29285;52.128;21.060;2023-04-04T06:36:41;101116.85;;;2.81;82.81
43683;BME280;29285;52.128;21.060;2023-04-04T06:41:43;101114.23;;;2.92;82.84
43683;BME280;29285;52.128;21.060;2023-04-04T06:46:44;101112.92;;;3.07;82.97
43683;BME280;29285;52.128;21.060;2023-04-04T06:51:49;101111.62;;;2.97;82.58
43683;BME280;29285;52.128;21.060;2023-04-04T06:56:51;101110.35;;;3.07;82.64
43683;BME280;29285;52.128;21.060;2023-04-04T07:01:55;101111.98;;;3.29;83.07
43683;BME280;29285;52.128;21.060;2023-04-04T07:06:57;101107.29;;;3.47;83.24
43683;BME280;29285;52.128;21.060;2023-04-04T07:12:02;101102.48;;;3.47;83.33
43683;BME280;29285;52.128;21.060;2023-04-04T07:17:07;101099.40;;;3.41;82.94
43683;BME280;29285;52.128;21.060;2023-04-04T07:22:09;101099.00;;;3.45;82.83
43683;BME280;29285;52.128;21.060;2023-04-04T07:27:10;101096.73;;;3.64;83.13
43683;BME280;29285;52.128;21.060;2023-04-04T07:32:15;101095.34;;;3.93;83.70
43683;BME280;29285;52.128;21.060;2023-04-04T07:37:17;101088.27;;;4.06;83.49
43683;BME280;29285;52.128;21.060;2023-04-04T07:42:19;101088.67;;;4.24;83.48
43683;BME280;29285;52.128;21.060;2023-04-04T07:47:30;101082.92;;;4.20;83.31
43683;BME280;29285;52.128;21.060;2023-04-04T07:52:34;101084.27;;;4.04;82.35
43683;BME280;29285;52.128;21.060;2023-04-04T07:57:58;101082.69;;;3.94;81.95
43683;BME280;29285;52.128;21.060;2023-04-04T08:03:00;101072.24;;;4.04;81.81
43683;BME280;29285;52.128;21.060;2023-04-04T08:08:03;101067.48;;;4.13;81.81
43683;BME280;29285;52.128;21.060;2023-04-04T08:13:05;101064.81;;;4.01;81.48
43683;BME280;29285;52.128;21.060;2023-04-04T08:18:07;101066.61;;;3.90;80.95
43683;BME280;29285;52.128;21.060;2023-04-04T08:23:08;101062.86;;;3.91;80.90
43683;BME280;29285;52.128;21.060;2023-04-04T08:28:14;101060.25;;;3.97;80.73
43683;BME280;29285;52.128;21.060;2023-04-04T08:33:16;101046.45;;;4.18;81.00
43683;BME280;29285;52.128;21.060;2023-04-04T08:38:18;101042.20;;;4.46;81.09
43683;BME280;29285;52.128;21.060;2023-04-04T08:43:19;101042.41;;;4.73;81.29
43683;BME280;29285;52.128;21.060;2023-04-04T08:48:22;101042.73;;;4.72;81.04
43683;BME280;29285;52.128;21.060;2023-04-04T08:53:27;101043.47;;;4.75;80.74
43683;BME280;29285;52.128;21.060;2023-04-04T08:58:29;101046.98;;;4.61;80.27
43683;BME280;29285;52.128;21.060;2023-04-04T09:03:40;101045.92;;;4.17;78.98
43683;BME280;29285;52.128;21.060;2023-04-04T09:08:43;101052.43;;;3.93;78.44
43683;BME280;29285;52.128;21.060;2023-04-04T09:13:45;101050.65;;;3.83;78.35
43683;BME280;29285;52.128;21.060;2023-04-04T09:18:48;101037.25;;;3.90;78.48
43683;BME280;29285;52.128;21.060;2023-04-04T09:23:59;101038.20;;;4.10;79.24
43683;BME280;29285;52.128;21.060;2023-04-04T09:29:05;101036.81;;;4.09;79.30
43683;BME280;29285;52.128;21.060;2023-04-04T09:34:08;101041.98;;;4.02;79.04
43683;BME280;29285;52.128;21.060;2023-04-04T09:39:10;101055.21;;;3.87;78.42
43683;BME280;29285;52.128;21.060;2023-04-04T09:44:12;101045.15;;;3.68;77.90
43683;BME280;29285;52.128;21.060;2023-04-04T09:49:20;101044.10;;;3.67;77.71
43683;BME280;29285;52.128;21.060;2023-04-04T09:54:23;101042.43;;;3.84;77.80
43683;BME280;29285;52.128;21.060;2023-04-04T09:59:24;101042.16;;;4.10;78.46
43683;BME280;29285;52.128;21.060;2023-04-04T10:04:26;101041.97;;;4.33;78.68
43683;BME280;29285;52.128;21.060;2023-04-04T10:09:28;101042.05;;;4.37;78.50
43683;BME280;29285;52.128;21.060;2023-04-04T10:14:34;101043.73;;;4.36;78.35
43683;BME280;29285;52.128;21.060;2023-04-04T10:19:36;101043.70;;;4.34;77.80
43683;BME280;29285;52.128;21.060;2023-04-04T10:24:38;101043.59;;;4.29;77.47
43683;BME280;29285;52.128;21.060;2023-04-04T10:29:44;101039.88;;;4.40;77.14
43683;BME280;29285;52.128;21.060;2023-04-04T10:40:00;101039.47;;;4.54;76.46
43683;BME280;29285;52.128;21.060;2023-04-04T10:45:08;101027.71;;;4.60;76.02
43683;BME280;29285;52.128;21.060;2023-04-04T10:50:10;101022.13;;;4.73;75.93
43683;BME280;29285;52.128;21.060;2023-04-04T10:55:13;101027.84;;;4.84;75.76
43683;BME280;29285;52.128;21.060;2023-04-04T11:00:18;101026.19;;;4.70;74.94
43683;BME280;29285;52.128;21.060;2023-04-04T11:05:21;101028.05;;;4.59;74.16
43683;BME280;29285;52.128;21.060;2023-04-04T11:10:25;101023.52;;;4.65;73.76
43683;BME280;29285;52.128;21.060;2023-04-04T11:15:27;101028.25;;;4.69;73.53
43683;BME280;29285;52.128;21.060;2023-04-04T11:20:48;101024.08;;;4.67;73.14
43683;BME280;29285;52.128;21.060;2023-04-04T11:25:53;101010.54;;;4.70;72.88
43683;BME280;29285;52.128;21.060;2023-04-04T11:36:53;100999.45;;;5.14;73.29
43683;BME280;29285;52.128;21.060;2023-04-04T11:41:48;101007.04;;;5.05;72.44
43683;BME280;29285;52.128;21.060;2023-04-04T11:52:07;101006.23;;;5.17;71.71
43683;BME280;29285;52.128;21.060;2023-04-04T11:57:13;101006.30;;;5.11;71.44
43683;BME280;29285;52.128;21.060;2023-04-04T12:02:19;101006.01;;;5.04;71.00
43683;BME280;29285;52.128;21.060;2023-04-04T12:07:22;101001.91;;;4.87;70.54
43683;BME280;29285;52.128;21.060;2023-04-04T12:12:27;101002.56;;;4.66;69.83
43683;BME280;29285;52.128;21.060;2023-04-04T12:17:29;101000.52;;;4.49;69.39
43683;BME280;29285;52.128;21.060;2023-04-04T12:22:34;100998.63;;;4.49;69.56
43683;BME280;29285;52.128;21.060;2023-04-04T12:27:36;100998.40;;;4.55;69.54
43683;BME280;29285;52.128;21.060;2023-04-04T12:32:38;100997.54;;;4.63;69.67
43683;BME280;29285;52.128;21.060;2023-04-04T12:37:56;101001.45;;;4.61;69.64
43683;BME280;29285;52.128;21.060;2023-04-04T12:42:59;100994.34;;;4.49;69.23
43683;BME280;29285;52.128;21.060;2023-04-04T12:48:01;100997.24;;;4.39;68.85
43683;BME280;29285;52.128;21.060;2023-04-04T12:53:15;100998.49;;;4.25;68.70
43683;BME280;29285;52.128;21.060;2023-04-04T12:58:18;100999.84;;;4.06;68.39
43683;BME280;29285;52.128;21.060;2023-04-04T13:03:21;100992.71;;;3.95;68.51
43683;BME280;29285;52.128;21.060;2023-04-04T13:08:23;100993.61;;;3.88;68.23
43683;BME280;29285;52.128;21.060;2023-04-04T13:13:38;100995.48;;;3.88;68.49
43683;BME280;29285;52.128;21.060;2023-04-04T13:18:41;100996.20;;;3.97;68.87
43683;BME280;29285;52.128;21.060;2023-04-04T13:23:46;100996.05;;;3.98;68.66
43683;BME280;29285;52.128;21.060;2023-04-04T13:28:48;100991.41;;;3.98;68.52
43683;BME280;29285;52.128;21.060;2023-04-04T13:33:49;100995.05;;;4.00;68.90
43683;BME280;29285;52.128;21.060;2023-04-04T13:38:51;100988.14;;;4.06;68.94
43683;BME280;29285;52.128;21.060;2023-04-04T13:43:53;100984.46;;;4.19;69.14
43683;BME280;29285;52.128;21.060;2023-04-04T13:48:56;100980.38;;;4.29;69.36
43683;BME280;29285;52.128;21.060;2023-04-04T13:53:58;100976.02;;;4.35;69.32
43683;BME280;29285;52.128;21.060;2023-04-04T13:59:00;100982.11;;;4.29;69.14
43683;BME280;29285;52.128;21.060;2023-04-04T14:04:01;100980.02;;;4.20;68.88
43683;BME280;29285;52.128;21.060;2023-04-04T14:09:06;100980.55;;;4.21;68.74
43683;BME280;29285;52.128;21.060;2023-04-04T14:14:08;100982.15;;;4.23;68.70
43683;BME280;29285;52.128;21.060;2023-04-04T14:19:10;100979.77;;;4.16;68.60
43683;BME280;29285;52.128;21.060;2023-04-04T14:24:11;100973.29;;;4.18;68.28
43683;BME280;29285;52.128;21.060;2023-04-04T14:29:13;100969.33;;;4.17;68.35
43683;BME280;29285;52.128;21.060;2023-04-04T14:34:15;100969.51;;;4.18;68.38
43683;BME280;29285;52.128;21.060;2023-04-04T14:39:17;100968.38;;;4.22;68.24
43683;BME280;29285;52.128;21.060;2023-04-04T14:44:19;100967.02;;;4.32;68.08
43683;BME280;29285;52.128;21.060;2023-04-04T14:49:22;100965.86;;;4.42;68.28
43683;BME280;29285;52.128;21.060;2023-04-04T14:54:24;100965.79;;;4.48;68.14
43683;BME280;29285;52.128;21.060;2023-04-04T14:59:26;100959.84;;;4.42;67.73
43683;BME280;29285;52.128;21.060;2023-04-04T15:04:28;100962.69;;;4.38;67.52
43683;BME280;29285;52.128;21.060;2023-04-04T15:09:29;100961.55;;;4.33;67.22
43683;BME280;29285;52.128;21.060;2023-04-04T15:14:31;100959.23;;;4.29;66.98
43683;BME280;29285;52.128;21.060;2023-04-04T15:19:33;100957.00;;;4.20;66.83
43683;BME280;29285;52.128;21.060;2023-04-04T15:24:36;100955.31;;;4.12;66.52
43683;BME280;29285;52.128;21.060;2023-04-04T15:29:39;100954.24;;;4.11;66.77
43683;BME280;29285;52.128;21.060;2023-04-04T15:34:48;100957.05;;;4.05;66.37
43683;BME280;29285;52.128;21.060;2023-04-04T15:39:50;100947.94;;;3.96;66.13
43683;BME280;29285;52.128;21.060;2023-04-04T15:44:51;100951.60;;;3.91;65.92
43683;BME280;29285;52.128;21.060;2023-04-04T15:49:53;100949.50;;;3.81;65.84
43683;BME280;29285;52.128;21.060;2023-04-04T15:54:55;100951.17;;;3.79;65.69
43683;BME280;29285;52.128;21.060;2023-04-04T15:59:57;100947.23;;;3.88;65.90
43683;BME280;29285;52.128;21.060;2023-04-04T16:04:59;100956.02;;;4.40;67.05
43683;BME280;29285;52.128;21.060;2023-04-04T16:10:01;100948.83;;;4.90;68.32
43683;BME280;29285;52.128;21.060;2023-04-04T16:15:04;100944.44;;;5.04;68.87
43683;BME280;29285;52.128;21.060;2023-04-04T16:20:07;100944.02;;;5.11;68.84
43683;BME280;29285;52.128;21.060;2023-04-04T16:25:12;100939.38;;;5.00;68.50
43683;BME280;29285;52.128;21.060;2023-04-04T16:30:14;100940.70;;;4.78;67.73
43683;BME280;29285;52.128;21.060;2023-04-04T16:35:16;100941.20;;;4.56;67.26
43683;BME280;29285;52.128;21.060;2023-04-04T16:40:17;100942.40;;;4.38;66.74
43683;BME280;29285;52.128;21.060;2023-04-04T16:45:19;100942.77;;;4.13;66.00
43683;BME280;29285;52.128;21.060;2023-04-04T16:50:21;100945.23;;;3.99;65.79
43683;BME280;29285;52.128;21.060;2023-04-04T16:55:23;100948.82;;;3.89;65.66
43683;BME280;29285;52.128;21.060;2023-04-04T17:00:27;100946.23;;;3.81;65.52
43683;BME280;29285;52.128;21.060;2023-04-04T17:05:30;100951.68;;;3.70;65.61
43683;BME280;29285;52.128;21.060;2023-04-04T17:10:32;100950.73;;;3.59;65.24
43683;BME280;29285;52.128;21.060;2023-04-04T17:15:33;100952.73;;;3.49;65.12
43683;BME280;29285;52.128;21.060;2023-04-04T17:20:36;100957.41;;;3.50;65.15
43683;BME280;29285;52.128;21.060;2023-04-04T17:25:38;100955.48;;;3.56;65.35
43683;BME280;29285;52.128;21.060;2023-04-04T17:30:40;100960.73;;;3.62;65.77
43683;BME280;29285;52.128;21.060;2023-04-04T17:35:42;100963.19;;;3.63;65.70
43683;BME280;29285;52.128;21.060;2023-04-04T17:40:48;100970.00;;;3.61;65.80
43683;BME280;29285;52.128;21.060;2023-04-04T17:45:50;100973.11;;;3.54;65.34
43683;BME280;29285;52.128;21.060;2023-04-04T17:50:51;100976.75;;;3.56;65.75
43683;BME280;29285;52.128;21.060;2023-04-04T17:55:53;100980.67;;;3.47;65.40
43683;BME280;29285;52.128;21.060;2023-04-04T18:00:54;100978.67;;;3.43;65.45
43683;BME280;29285;52.128;21.060;2023-04-04T18:05:57;100976.84;;;3.44;65.37
43683;BME280;29285;52.128;21.060;2023-04-04T18:10:59;100980.33;;;3.47;65.48
43683;BME280;29285;52.128;21.060;2023-04-04T18:16:01;100984.10;;;3.47;65.54
43683;BME280;29285;52.128;21.060;2023-04-04T18:21:03;100986.70;;;3.48;65.65
43683;BME280;29285;52.128;21.060;2023-04-04T18:26:05;100984.04;;;3.52;65.78
43683;BME280;29285;52.128;21.060;2023-04-04T18:31:07;100987.95;;;3.57;65.94
43683;BME280;29285;52.128;21.060;2023-04-04T18:36:09;100985.45;;;3.61;65.97
43683;BME280;29285;52.128;21.060;2023-04-04T18:41:10;100985.22;;;3.66;66.09
43683;BME280;29285;52.128;21.060;2023-04-04T18:46:12;100985.01;;;3.72;66.10
43683;BME280;29285;52.128;21.060;2023-04-04T18:51:13;100989.67;;;3.73;66.14
43683;BME280;29285;52.128;21.060;2023-04-04T18:56:15;100989.46;;;3.71;65.76
43683;BME280;29285;52.128;21.060;2023-04-04T19:01:17;100990.21;;;3.67;65.88
43683;BME280;29285;52.128;21.060;2023-04-04T19:06:21;100988.73;;;3.70;65.83
43683;BME280;29285;52.128;21.060;2023-04-04T19:11:24;100987.38;;;3.78;66.09
43683;BME280;29285;52.128;21.060;2023-04-04T19:16:26;100986.48;;;3.83;66.04
43683;BME280;29285;52.128;21.060;2023-04-04T19:21:28;100986.95;;;3.82;65.86
43683;BME280;29285;52.128;21.060;2023-04-04T19:26:30;100988.48;;;3.81;65.82
43683;BME280;29285;52.128;21.060;2023-04-04T19:31:32;100990.33;;;3.87;65.79
43683;BME280;29285;52.128;21.060;2023-04-04T19:36:35;100987.88;;;3.93;66.19
43683;BME280;29285;52.128;21.060;2023-04-04T19:41:37;100988.01;;;4.00;66.46
43683;BME280;29285;52.128;21.060;2023-04-04T19:46:42;100988.10;;;4.04;66.50
43683;BME280;29285;52.128;21.060;2023-04-04T19:51:47;100990.95;;;4.08;67.04
43683;BME280;29285;52.128;21.060;2023-04-04T19:56:50;100988.53;;;4.08;67.31
43683;BME280;29285;52.128;21.060;2023-04-04T20:01:54;100990.40;;;3.99;67.15
43683;BME280;29285;52.128;21.060;2023-04-04T20:06:56;100987.61;;;3.89;67.14
43683;BME280;29285;52.128;21.060;2023-04-04T20:11:58;100985.13;;;3.85;67.39
43683;BME280;29285;52.128;21.060;2023-04-04T20:17:00;100989.13;;;3.88;67.54
43683;BME280;29285;52.128;21.060;2023-04-04T20:22:02;100986.66;;;3.92;67.92
43683;BME280;29285;52.128;21.060;2023-04-04T20:27:05;100987.17;;;3.93;68.05
43683;BME280;29285;52.128;21.060;2023-04-04T20:32:07;100983.89;;;3.91;68.13
43683;BME280;29285;52.128;21.060;2023-04-04T20:37:13;100983.45;;;3.88;68.62
43683;BME280;29285;52.128;21.060;2023-04-04T20:47:44;100988.16;;;3.75;68.91
43683;BME280;29285;52.128;21.060;2023-04-04T20:52:56;100984.47;;;3.71;69.26
43683;BME280;29285;52.128;21.060;2023-04-04T20:58:06;100984.30;;;3.56;69.17
43683;BME280;29285;52.128;21.060;2023-04-04T21:13:32;100983.10;;;3.34;69.71
43683;BME280;29285;52.128;21.060;2023-04-04T21:18:34;100986.20;;;3.27;70.03
43683;BME280;29285;52.128;21.060;2023-04-04T21:23:43;100985.77;;;3.24;70.10
43683;BME280;29285;52.128;21.060;2023-04-04T21:28:46;100987.51;;;3.18;70.64
43683;BME280;29285;52.128;21.060;2023-04-04T21:33:48;100984.93;;;3.10;70.79
43683;BME280;29285;52.128;21.060;2023-04-04T21:38:51;100990.38;;;2.95;70.82
43683;BME280;29285;52.128;21.060;2023-04-04T21:43:53;100989.30;;;2.87;71.00
43683;BME280;29285;52.128;21.060;2023-04-04T21:48:55;100984.52;;;2.80;71.21
43683;BME280;29285;52.128;21.060;2023-04-04T21:53:57;100979.23;;;2.75;71.31
43683;BME280;29285;52.128;21.060;2023-04-04T21:59:00;100973.62;;;2.70;71.63
43683;BME280;29285;52.128;21.060;2023-04-04T22:04:02;100972.95;;;2.64;71.65
43683;BME280;29285;52.128;21.060;2023-04-04T22:09:06;100972.19;;;2.61;71.94
43683;BME280;29285;52.128;21.060;2023-04-04T22:14:08;100974.09;;;2.55;72.17
43683;BME280;29285;52.128;21.060;2023-04-04T22:19:09;100974.64;;;2.50;72.25
43683;BME280;29285;52.128;21.060;2023-04-04T22:24:11;100973.30;;;2.52;72.58
43683;BME280;29285;52.128;21.060;2023-04-04T22:29:16;100971.82;;;2.54;72.85
43683;BME280;29285;52.128;21.060;2023-04-04T22:34:18;100972.34;;;2.54;73.36
43683;BME280;29285;52.128;21.060;2023-04-04T22:39:19;100972.16;;;2.53;73.67
43683;BME280;29285;52.128;21.060;2023-04-04T22:44:23;100975.25;;;2.47;73.61
43683;BME280;29285;52.128;21.060;2023-04-04T22:49:25;100973.73;;;2.37;73.48
43683;BME280;29285;52.128;21.060;2023-04-04T22:54:27;100972.99;;;2.22;73.54
43683;BME280;29285;52.128;21.060;2023-04-04T23:04:46;100965.96;;;2.09;73.58
43683;BME280;29285;52.128;21.060;2023-04-04T23:10:09;100965.17;;;2.00;73.56
43683;BME280;29285;52.128;21.060;2023-04-04T23:15:10;100964.35;;;1.94;73.68
43683;BME280;29285;52.128;21.060;2023-04-04T23:20:22;100966.98;;;1.91;73.78
43683;BME280;29285;52.128;21.060;2023-04-04T23:30:46;100951.92;;;1.91;74.40
43683;BME280;29285;52.128;21.060;2023-04-04T23:36:19;100952.52;;;1.94;74.40
43683;BME280;29285;52.128;21.060;2023-04-04T23:41:23;100947.56;;;1.94;74.59
43683;BME280;29285;52.128;21.060;2023-04-04T23:46:25;100940.17;;;1.93;74.55
43683;BME280;29285;52.128;21.060;2023-04-04T23:51:27;100938.41;;;1.91;74.74
43683;BME280;29285;52.128;21.060;2023-04-04T23:56:38;100939.98;;;1.86;74.96
